Callaway, Minnesota
Current Conditions -  °F | °C
As of 1:55 PM on Wednesday 17 Dec 2014 (Local Time) from KDTL Reporting Station
Light Snow Light Snow  
Wind Chill:   Ceiling: 700
Heat Index: 14°   Visibility: 1.7mi
Dew Point: 12°   Wind: 7mph
Humidity: 93%   Direction: 310°NW
Pressure: 30.3"   Gusts: NA
Location:  46.98°N, 95.91°W
Report Text: KDTL 171955Z AUTO 31006KT 1 3/4SM -SN VV007 M10/M11 A3030 RMK AO2
Loading
Personal Weather Stations






























Interactive Weather Map New forecast layout! Learn more

10-Day Weather Forecast

Advertisements
Track Severe Weather on mobile